sensor_id;sensor_type;location;lat;lon;timestamp;temperature;humidity
64833;HTU21D;51290;45.060;38.948;2023-11-22T00:02:02;5.86;75.02
64833;HTU21D;51290;45.060;38.948;2023-11-22T00:04:28;5.84;75.07
64833;HTU21D;51290;45.060;38.948;2023-11-22T00:06:54;5.81;75.19
64833;HTU21D;51290;45.060;38.948;2023-11-22T00:09:20;5.82;75.18
64833;HTU21D;51290;45.060;38.948;2023-11-22T00:11:48;5.79;75.12
64833;HTU21D;51290;45.060;38.948;2023-11-22T00:14:15;5.76;75.18
64833;HTU21D;51290;45.060;38.948;2023-11-22T00:16:41;5.71;75.22
64833;HTU21D;51290;45.060;38.948;2023-11-22T00:19:08;5.67;75.32
64833;HTU21D;51290;45.060;38.948;2023-11-22T00:21:34;5.65;75.47
64833;HTU21D;51290;45.060;38.948;2023-11-22T00:24:01;5.64;75.52
64833;HTU21D;51290;45.060;38.948;2023-11-22T00:26:27;5.63;75.53
64833;HTU21D;51290;45.060;38.948;2023-11-22T00:28:56;5.59;75.61
64833;HTU21D;51290;45.060;38.948;2023-11-22T00:31:22;5.54;75.67
64833;HTU21D;51290;45.060;38.948;2023-11-22T00:33:49;5.49;75.77
64833;HTU21D;51290;45.060;38.948;2023-11-22T00:36:15;5.46;75.86
64833;HTU21D;51290;45.060;38.948;2023-11-22T00:38:42;5.42;76.03
64833;HTU21D;51290;45.060;38.948;2023-11-22T00:41:08;5.41;76.17
64833;HTU21D;51290;45.060;38.948;2023-11-22T00:43:35;5.39;76.37
64833;HTU21D;51290;45.060;38.948;2023-11-22T00:46:02;5.34;76.47
64833;HTU21D;51290;45.060;38.948;2023-11-22T00:48:27;5.27;76.49
64833;HTU21D;51290;45.060;38.948;2023-11-22T00:50:53;5.25;76.59
64833;HTU21D;51290;45.060;38.948;2023-11-22T00:53:20;5.25;76.76
64833;HTU21D;51290;45.060;38.948;2023-11-22T00:55:45;5.24;76.87
64833;HTU21D;51290;45.060;38.948;2023-11-22T00:58:11;5.26;77.09
64833;HTU21D;51290;45.060;38.948;2023-11-22T01:00:37;5.24;77.02
64833;HTU21D;51290;45.060;38.948;2023-11-22T01:03:04;5.23;77.03
64833;HTU21D;51290;45.060;38.948;2023-11-22T01:05:30;5.23;77.13
64833;HTU21D;51290;45.060;38.948;2023-11-22T01:07:56;5.23;77.18
64833;HTU21D;51290;45.060;38.948;2023-11-22T01:10:22;5.25;77.31
64833;HTU21D;51290;45.060;38.948;2023-11-22T01:12:48;5.26;77.35
64833;HTU21D;51290;45.060;38.948;2023-11-22T01:15:14;5.28;77.40
64833;HTU21D;51290;45.060;38.948;2023-11-22T01:17:40;5.30;77.35
64833;HTU21D;51290;45.060;38.948;2023-11-22T01:20:07;5.31;77.44
64833;HTU21D;51290;45.060;38.948;2023-11-22T01:22:36;5.31;77.45
64833;HTU21D;51290;45.060;38.948;2023-11-22T01:25:04;5.32;77.46
64833;HTU21D;51290;45.060;38.948;2023-11-22T01:27:30;5.28;77.44
64833;HTU21D;51290;45.060;38.948;2023-11-22T01:29:56;5.24;77.48
64833;HTU21D;51290;45.060;38.948;2023-11-22T01:32:23;5.22;77.56
64833;HTU21D;51290;45.060;38.948;2023-11-22T01:34:49;5.18;77.64
64833;HTU21D;51290;45.060;38.948;2023-11-22T01:37:15;5.15;77.76
64833;HTU21D;51290;45.060;38.948;2023-11-22T01:39:41;5.13;77.95
64833;HTU21D;51290;45.060;38.948;2023-11-22T01:42:08;5.15;77.96
64833;HTU21D;51290;45.060;38.948;2023-11-22T01:44:35;5.12;77.95
64833;HTU21D;51290;45.060;38.948;2023-11-22T01:47:01;5.11;78.07
64833;HTU21D;51290;45.060;38.948;2023-11-22T01:49:29;5.12;78.12
64833;HTU21D;51290;45.060;38.948;2023-11-22T01:51:55;5.13;78.14
64833;HTU21D;51290;45.060;38.948;2023-11-22T01:54:22;5.16;78.18
64833;HTU21D;51290;45.060;38.948;2023-11-22T01:56:49;5.16;78.21
64833;HTU21D;51290;45.060;38.948;2023-11-22T01:59:16;5.17;78.13
64833;HTU21D;51290;45.060;38.948;2023-11-22T02:01:43;5.18;78.14
64833;HTU21D;51290;45.060;38.948;2023-11-22T02:04:09;5.16;78.11
64833;HTU21D;51290;45.060;38.948;2023-11-22T02:06:37;5.16;78.08
64833;HTU21D;51290;45.060;38.948;2023-11-22T02:09:03;5.12;78.11
64833;HTU21D;51290;45.060;38.948;2023-11-22T02:11:29;5.10;78.24
64833;HTU21D;51290;45.060;38.948;2023-11-22T02:13:55;5.10;78.34
64833;HTU21D;51290;45.060;38.948;2023-11-22T02:16:21;5.08;78.34
64833;HTU21D;51290;45.060;38.948;2023-11-22T02:18:48;5.05;78.43
64833;HTU21D;51290;45.060;38.948;2023-11-22T02:21:15;4.98;78.46
64833;HTU21D;51290;45.060;38.948;2023-11-22T02:23:41;4.94;78.49
64833;HTU21D;51290;45.060;38.948;2023-11-22T02:26:08;4.90;78.58
64833;HTU21D;51290;45.060;38.948;2023-11-22T02:28:34;4.84;78.63
64833;HTU21D;51290;45.060;38.948;2023-11-22T02:31:00;4.81;78.70
64833;HTU21D;51290;45.060;38.948;2023-11-22T02:33:26;4.78;78.70
64833;HTU21D;51290;45.060;38.948;2023-11-22T02:35:52;4.75;78.69
64833;HTU21D;51290;45.060;38.948;2023-11-22T02:38:18;4.69;78.67
64833;HTU21D;51290;45.060;38.948;2023-11-22T02:40:44;4.65;78.69
64833;HTU21D;51290;45.060;38.948;2023-11-22T02:43:10;4.63;78.72
64833;HTU21D;51290;45.060;38.948;2023-11-22T02:45:37;4.61;78.81
64833;HTU21D;51290;45.060;38.948;2023-11-22T02:48:04;4.59;78.88
64833;HTU21D;51290;45.060;38.948;2023-11-22T02:50:35;4.58;78.87
64833;HTU21D;51290;45.060;38.948;2023-11-22T02:53:03;4.57;78.97
64833;HTU21D;51290;45.060;38.948;2023-11-22T02:55:29;4.60;79.04
64833;HTU21D;51290;45.060;38.948;2023-11-22T02:57:55;4.60;78.98
64833;HTU21D;51290;45.060;38.948;2023-11-22T03:00:21;4.62;79.01
64833;HTU21D;51290;45.060;38.948;2023-11-22T03:02:48;4.64;79.03
64833;HTU21D;51290;45.060;38.948;2023-11-22T03:05:23;4.63;79.02
64833;HTU21D;51290;45.060;38.948;2023-11-22T03:07:49;4.62;79.04
64833;HTU21D;51290;45.060;38.948;2023-11-22T03:10:18;4.63;78.98
64833;HTU21D;51290;45.060;38.948;2023-11-22T03:12:44;4.61;79.02
64833;HTU21D;51290;45.060;38.948;2023-11-22T03:15:10;4.63;79.08
64833;HTU21D;51290;45.060;38.948;2023-11-22T03:17:37;4.62;79.10
64833;HTU21D;51290;45.060;38.948;2023-11-22T03:20:07;4.59;79.12
64833;HTU21D;51290;45.060;38.948;2023-11-22T03:22:37;4.59;79.21
64833;HTU21D;51290;45.060;38.948;2023-11-22T03:25:04;4.60;79.34
64833;HTU21D;51290;45.060;38.948;2023-11-22T03:27:30;4.60;79.34
64833;HTU21D;51290;45.060;38.948;2023-11-22T03:29:56;4.62;79.37
64833;HTU21D;51290;45.060;38.948;2023-11-22T03:32:22;4.63;79.36
64833;HTU21D;51290;45.060;38.948;2023-11-22T03:34:48;4.65;79.34
64833;HTU21D;51290;45.060;38.948;2023-11-22T03:37:14;4.65;79.27
64833;HTU21D;51290;45.060;38.948;2023-11-22T03:39:40;4.66;79.24
64833;HTU21D;51290;45.060;38.948;2023-11-22T03:42:08;4.64;79.21
64833;HTU21D;51290;45.060;38.948;2023-11-22T03:44:34;4.60;79.27
64833;HTU21D;51290;45.060;38.948;2023-11-22T03:47:00;4.57;79.27
64833;HTU21D;51290;45.060;38.948;2023-11-22T03:49:26;4.53;79.32
64833;HTU21D;51290;45.060;38.948;2023-11-22T03:51:52;4.52;79.38
64833;HTU21D;51290;45.060;38.948;2023-11-22T03:54:18;4.51;79.40
64833;HTU21D;51290;45.060;38.948;2023-11-22T03:56:44;4.49;79.34
64833;HTU21D;51290;45.060;38.948;2023-11-22T03:59:10;4.45;79.27
64833;HTU21D;51290;45.060;38.948;2023-11-22T04:01:36;4.38;79.30
64833;HTU21D;51290;45.060;38.948;2023-11-22T04:04:02;4.32;79.33
64833;HTU21D;51290;45.060;38.948;2023-11-22T04:06:28;4.27;79.40
64833;HTU21D;51290;45.060;38.948;2023-11-22T04:08:54;4.23;79.55
64833;HTU21D;51290;45.060;38.948;2023-11-22T04:11:20;4.21;79.62
64833;HTU21D;51290;45.060;38.948;2023-11-22T04:13:47;4.17;79.62
64833;HTU21D;51290;45.060;38.948;2023-11-22T04:16:13;4.15;79.75
64833;HTU21D;51290;45.060;38.948;2023-11-22T04:18:39;4.10;80.01
64833;HTU21D;51290;45.060;38.948;2023-11-22T04:21:06;4.05;79.78
64833;HTU21D;51290;45.060;38.948;2023-11-22T04:23:32;4.01;79.84
64833;HTU21D;51290;45.060;38.948;2023-11-22T04:25:59;3.99;79.98
64833;HTU21D;51290;45.060;38.948;2023-11-22T04:28:27;3.97;79.95
64833;HTU21D;51290;45.060;38.948;2023-11-22T04:30:53;3.93;79.98
64833;HTU21D;51290;45.060;38.948;2023-11-22T04:33:19;3.92;79.95
64833;HTU21D;51290;45.060;38.948;2023-11-22T04:35:48;3.92;80.17
64833;HTU21D;51290;45.060;38.948;2023-11-22T04:38:14;3.92;80.04
64833;HTU21D;51290;45.060;38.948;2023-11-22T04:40:40;3.89;80.11
64833;HTU21D;51290;45.060;38.948;2023-11-22T04:43:08;3.90;80.17
64833;HTU21D;51290;45.060;38.948;2023-11-22T04:45:34;3.90;80.16
64833;HTU21D;51290;45.060;38.948;2023-11-22T04:48:00;3.93;80.15
64833;HTU21D;51290;45.060;38.948;2023-11-22T04:50:26;3.94;80.24
64833;HTU21D;51290;45.060;38.948;2023-11-22T04:52:52;3.97;80.13
64833;HTU21D;51290;45.060;38.948;2023-11-22T04:55:18;3.98;80.27
64833;HTU21D;51290;45.060;38.948;2023-11-22T04:57:45;3.95;80.18
64833;HTU21D;51290;45.060;38.948;2023-11-22T05:00:12;3.95;80.21
64833;HTU21D;51290;45.060;38.948;2023-11-22T05:02:38;3.95;80.13
64833;HTU21D;51290;45.060;38.948;2023-11-22T05:05:09;3.98;80.05
64833;HTU21D;51290;45.060;38.948;2023-11-22T05:07:38;4.00;80.04
64833;HTU21D;51290;45.060;38.948;2023-11-22T05:10:05;4.00;80.05
64833;HTU21D;51290;45.060;38.948;2023-11-22T05:12:31;4.00;80.30
64833;HTU21D;51290;45.060;38.948;2023-11-22T05:14:57;3.98;80.08
64833;HTU21D;51290;45.060;38.948;2023-11-22T05:17:23;3.94;80.11
64833;HTU21D;51290;45.060;38.948;2023-11-22T05:19:49;3.94;80.16
64833;HTU21D;51290;45.060;38.948;2023-11-22T05:22:16;3.92;80.03
64833;HTU21D;51290;45.060;38.948;2023-11-22T05:24:42;3.86;79.91
64833;HTU21D;51290;45.060;38.948;2023-11-22T05:27:08;3.78;79.89
64833;HTU21D;51290;45.060;38.948;2023-11-22T05:29:35;3.72;79.98
64833;HTU21D;51290;45.060;38.948;2023-11-22T05:32:02;3.67;80.04
64833;HTU21D;51290;45.060;38.948;2023-11-22T05:34:29;3.58;80.19
64833;HTU21D;51290;45.060;38.948;2023-11-22T05:36:55;3.49;80.32
64833;HTU21D;51290;45.060;38.948;2023-11-22T05:39:21;3.41;80.52
64833;HTU21D;51290;45.060;38.948;2023-11-22T05:41:53;3.36;80.57
64833;HTU21D;51290;45.060;38.948;2023-11-22T05:44:20;3.34;80.66
64833;HTU21D;51290;45.060;38.948;2023-11-22T05:46:45;3.38;80.74
64833;HTU21D;51290;45.060;38.948;2023-11-22T05:49:11;3.40;80.87
64833;HTU21D;51290;45.060;38.948;2023-11-22T05:51:37;3.43;80.99
64833;HTU21D;51290;45.060;38.948;2023-11-22T05:54:04;3.48;81.12
64833;HTU21D;51290;45.060;38.948;2023-11-22T05:56:30;3.54;81.21
64833;HTU21D;51290;45.060;38.948;2023-11-22T05:58:57;3.56;81.17
64833;HTU21D;51290;45.060;38.948;2023-11-22T06:01:25;3.58;81.23
64833;HTU21D;51290;45.060;38.948;2023-11-22T06:03:53;3.60;81.33
64833;HTU21D;51290;45.060;38.948;2023-11-22T06:06:19;3.64;81.48
64833;HTU21D;51290;45.060;38.948;2023-11-22T06:08:47;3.69;81.50
64833;HTU21D;51290;45.060;38.948;2023-11-22T06:11:13;3.71;81.55
64833;HTU21D;51290;45.060;38.948;2023-11-22T06:13:41;3.74;81.66
64833;HTU21D;51290;45.060;38.948;2023-11-22T06:16:08;3.75;81.74
64833;HTU21D;51290;45.060;38.948;2023-11-22T06:18:35;3.77;81.84
64833;HTU21D;51290;45.060;38.948;2023-11-22T06:21:09;3.77;81.97
64833;HTU21D;51290;45.060;38.948;2023-11-22T06:23:35;3.76;82.16
64833;HTU21D;51290;45.060;38.948;2023-11-22T06:26:02;3.77;82.26
64833;HTU21D;51290;45.060;38.948;2023-11-22T06:28:28;3.78;82.40
64833;HTU21D;51290;45.060;38.948;2023-11-22T06:30:55;3.79;82.58
64833;HTU21D;51290;45.060;38.948;2023-11-22T06:33:21;3.85;82.73
64833;HTU21D;51290;45.060;38.948;2023-11-22T06:35:47;3.90;82.76
64833;HTU21D;51290;45.060;38.948;2023-11-22T06:38:13;3.94;82.83
64833;HTU21D;51290;45.060;38.948;2023-11-22T06:40:39;4.01;82.96
64833;HTU21D;51290;45.060;38.948;2023-11-22T06:43:05;4.06;82.91
64833;HTU21D;51290;45.060;38.948;2023-11-22T06:45:31;4.09;82.79
64833;HTU21D;51290;45.060;38.948;2023-11-22T06:47:57;4.10;82.79
64833;HTU21D;51290;45.060;38.948;2023-11-22T06:50:24;4.15;82.95
64833;HTU21D;51290;45.060;38.948;2023-11-22T06:52:50;4.17;82.93
64833;HTU21D;51290;45.060;38.948;2023-11-22T06:55:18;4.17;82.96
64833;HTU21D;51290;45.060;38.948;2023-11-22T06:57:44;4.20;83.00
64833;HTU21D;51290;45.060;38.948;2023-11-22T07:00:11;4.21;83.00
64833;HTU21D;51290;45.060;38.948;2023-11-22T07:02:38;4.27;83.01
64833;HTU21D;51290;45.060;38.948;2023-11-22T07:05:04;4.29;82.92
64833;HTU21D;51290;45.060;38.948;2023-11-22T07:07:35;4.28;82.91
64833;HTU21D;51290;45.060;38.948;2023-11-22T07:10:02;4.31;83.10
64833;HTU21D;51290;45.060;38.948;2023-11-22T07:12:28;4.34;83.23
64833;HTU21D;51290;45.060;38.948;2023-11-22T07:14:54;4.39;83.23
64833;HTU21D;51290;45.060;38.948;2023-11-22T07:17:21;4.44;83.24
64833;HTU21D;51290;45.060;38.948;2023-11-22T07:19:48;4.46;83.22
64833;HTU21D;51290;45.060;38.948;2023-11-22T07:22:17;4.49;83.30
64833;HTU21D;51290;45.060;38.948;2023-11-22T07:24:48;4.54;83.44
64833;HTU21D;51290;45.060;38.948;2023-11-22T07:27:20;4.61;83.45
64833;HTU21D;51290;45.060;38.948;2023-11-22T07:29:46;4.66;83.36
64833;HTU21D;51290;45.060;38.948;2023-11-22T07:32:12;4.71;83.32
64833;HTU21D;51290;45.060;38.948;2023-11-22T07:34:40;4.74;83.33
64833;HTU21D;51290;45.060;38.948;2023-11-22T07:37:07;4.77;83.33
64833;HTU21D;51290;45.060;38.948;2023-11-22T07:39:36;4.78;83.35
64833;HTU21D;51290;45.060;38.948;2023-11-22T07:42:04;4.80;83.20
64833;HTU21D;51290;45.060;38.948;2023-11-22T07:44:34;4.74;83.11
64833;HTU21D;51290;45.060;38.948;2023-11-22T07:47:02;4.69;83.23
64833;HTU21D;51290;45.060;38.948;2023-11-22T07:49:28;4.71;83.35
64833;HTU21D;51290;45.060;38.948;2023-11-22T07:51:55;4.72;83.36
64833;HTU21D;51290;45.060;38.948;2023-11-22T07:54:22;4.74;83.37
64833;HTU21D;51290;45.060;38.948;2023-11-22T07:56:51;4.77;83.42
64833;HTU21D;51290;45.060;38.948;2023-11-22T07:59:18;4.80;83.42
64833;HTU21D;51290;45.060;38.948;2023-11-22T08:01:45;4.77;83.28
64833;HTU21D;51290;45.060;38.948;2023-11-22T08:04:13;4.80;83.43
64833;HTU21D;51290;45.060;38.948;2023-11-22T08:06:40;4.82;83.34
64833;HTU21D;51290;45.060;38.948;2023-11-22T08:09:06;4.79;83.15
64833;HTU21D;51290;45.060;38.948;2023-11-22T08:11:34;4.74;83.09
64833;HTU21D;51290;45.060;38.948;2023-11-22T08:14:02;4.65;83.07
64833;HTU21D;51290;45.060;38.948;2023-11-22T08:16:28;4.56;83.37
64833;HTU21D;51290;45.060;38.948;2023-11-22T08:18:54;4.47;83.47
64833;HTU21D;51290;45.060;38.948;2023-11-22T08:21:20;4.48;83.67
64833;HTU21D;51290;45.060;38.948;2023-11-22T08:23:46;4.49;83.64
64833;HTU21D;51290;45.060;38.948;2023-11-22T08:26:12;4.47;83.61
64833;HTU21D;51290;45.060;38.948;2023-11-22T08:28:40;4.44;83.64
64833;HTU21D;51290;45.060;38.948;2023-11-22T08:31:07;4.42;83.77
64833;HTU21D;51290;45.060;38.948;2023-11-22T08:37:01;4.34;83.81
64833;HTU21D;51290;45.060;38.948;2023-11-22T08:39:27;4.30;84.10
64833;HTU21D;51290;45.060;38.948;2023-11-22T08:41:55;4.26;84.01
64833;HTU21D;51290;45.060;38.948;2023-11-22T08:44:21;4.27;84.05
64833;HTU21D;51290;45.060;38.948;2023-11-22T08:46:48;4.30;84.03
64833;HTU21D;51290;45.060;38.948;2023-11-22T08:49:14;4.33;83.96
64833;HTU21D;51290;45.060;38.948;2023-11-22T08:51:41;4.35;83.94
64833;HTU21D;51290;45.060;38.948;2023-11-22T08:54:08;4.39;83.92
64833;HTU21D;51290;45.060;38.948;2023-11-22T08:56:34;4.45;83.90
64833;HTU21D;51290;45.060;38.948;2023-11-22T08:59:01;4.48;83.85
64833;HTU21D;51290;45.060;38.948;2023-11-22T09:01:27;4.53;83.78
64833;HTU21D;51290;45.060;38.948;2023-11-22T09:03:53;4.56;83.70
64833;HTU21D;51290;45.060;38.948;2023-11-22T09:06:19;4.53;83.74
64833;HTU21D;51290;45.060;38.948;2023-11-22T09:08:45;4.50;83.72
64833;HTU21D;51290;45.060;38.948;2023-11-22T09:11:12;4.44;83.62
64833;HTU21D;51290;45.060;38.948;2023-11-22T09:13:38;4.36;83.70
64833;HTU21D;51290;45.060;38.948;2023-11-22T09:16:05;4.31;83.78
64833;HTU21D;51290;45.060;38.948;2023-11-22T09:18:34;4.27;83.93
64833;HTU21D;51290;45.060;38.948;2023-11-22T09:21:00;4.22;83.94
64833;HTU21D;51290;45.060;38.948;2023-11-22T09:23:26;4.19;84.07
64833;HTU21D;51290;45.060;38.948;2023-11-22T09:25:53;4.17;84.07
64833;HTU21D;51290;45.060;38.948;2023-11-22T09:28:18;4.16;84.05
64833;HTU21D;51290;45.060;38.948;2023-11-22T09:30:45;4.13;84.17
64833;HTU21D;51290;45.060;38.948;2023-11-22T09:33:13;4.12;84.23
64833;HTU21D;51290;45.060;38.948;2023-11-22T09:35:43;4.09;84.26
64833;HTU21D;51290;45.060;38.948;2023-11-22T09:38:10;4.06;84.25
64833;HTU21D;51290;45.060;38.948;2023-11-22T09:40:42;4.04;84.26
64833;HTU21D;51290;45.060;38.948;2023-11-22T09:43:09;4.07;84.30
64833;HTU21D;51290;45.060;38.948;2023-11-22T09:45:36;4.10;84.35
64833;HTU21D;51290;45.060;38.948;2023-11-22T09:48:12;4.09;84.21
64833;HTU21D;51290;45.060;38.948;2023-11-22T09:51:09;4.09;84.20
64833;HTU21D;51290;45.060;38.948;2023-11-22T09:56:09;4.09;84.22
64833;HTU21D;51290;45.060;38.948;2023-11-22T09:58:40;4.07;84.26
64833;HTU21D;51290;45.060;38.948;2023-11-22T10:01:06;4.05;84.23
64833;HTU21D;51290;45.060;38.948;2023-11-22T10:03:33;4.04;84.61
64833;HTU21D;51290;45.060;38.948;2023-11-22T10:06:00;3.98;84.52
64833;HTU21D;51290;45.060;38.948;2023-11-22T10:08:26;4.00;84.54
64833;HTU21D;51290;45.060;38.948;2023-11-22T10:10:56;4.02;84.52
64833;HTU21D;51290;45.060;38.948;2023-11-22T10:13:22;4.02;84.44
64833;HTU21D;51290;45.060;38.948;2023-11-22T10:15:49;4.03;84.39
64833;HTU21D;51290;45.060;38.948;2023-11-22T10:18:15;4.03;84.38
64833;HTU21D;51290;45.060;38.948;2023-11-22T10:20:44;4.05;84.45
64833;HTU21D;51290;45.060;38.948;2023-11-22T10:23:19;4.04;84.46
64833;HTU21D;51290;45.060;38.948;2023-11-22T10:25:53;4.02;84.48
64833;HTU21D;51290;45.060;38.948;2023-11-22T10:28:20;4.03;84.48
64833;HTU21D;51290;45.060;38.948;2023-11-22T10:30:47;4.05;84.57
64833;HTU21D;51290;45.060;38.948;2023-11-22T10:33:17;4.13;84.57
64833;HTU21D;51290;45.060;38.948;2023-11-22T10:35:45;4.19;84.49
64833;HTU21D;51290;45.060;38.948;2023-11-22T10:38:14;4.21;84.45
64833;HTU21D;51290;45.060;38.948;2023-11-22T10:40:41;4.22;84.33
64833;HTU21D;51290;45.060;38.948;2023-11-22T10:43:11;4.26;84.38
64833;HTU21D;51290;45.060;38.948;2023-11-22T10:45:38;4.27;84.31
64833;HTU21D;51290;45.060;38.948;2023-11-22T10:48:05;4.29;84.18
64833;HTU21D;51290;45.060;38.948;2023-11-22T10:50:31;4.26;84.05
64833;HTU21D;51290;45.060;38.948;2023-11-22T10:52:58;4.23;84.15
64833;HTU21D;51290;45.060;38.948;2023-11-22T10:55:32;4.20;84.15
64833;HTU21D;51290;45.060;38.948;2023-11-22T10:58:02;4.15;84.14
64833;HTU21D;51290;45.060;38.948;2023-11-22T11:00:32;4.08;84.28
64833;HTU21D;51290;45.060;38.948;2023-11-22T11:03:07;4.05;84.40
64833;HTU21D;51290;45.060;38.948;2023-11-22T11:05:39;4.05;84.62
64833;HTU21D;51290;45.060;38.948;2023-11-22T11:08:14;4.04;84.45
64833;HTU21D;51290;45.060;38.948;2023-11-22T11:10:43;4.02;84.41
64833;HTU21D;51290;45.060;38.948;2023-11-22T11:13:10;4.04;84.55
64833;HTU21D;51290;45.060;38.948;2023-11-22T11:15:41;4.03;84.52
64833;HTU21D;51290;45.060;38.948;2023-11-22T11:18:12;4.05;84.51
64833;HTU21D;51290;45.060;38.948;2023-11-22T11:20:52;4.03;84.41
64833;HTU21D;51290;45.060;38.948;2023-11-22T11:23:23;4.04;84.49
64833;HTU21D;51290;45.060;38.948;2023-11-22T11:25:54;4.06;84.43
64833;HTU21D;51290;45.060;38.948;2023-11-22T11:28:21;4.10;84.36
64833;HTU21D;51290;45.060;38.948;2023-11-22T11:30:48;4.12;84.31
64833;HTU21D;51290;45.060;38.948;2023-11-22T11:33:18;4.15;84.35
64833;HTU21D;51290;45.060;38.948;2023-11-22T11:35:48;4.19;84.41
64833;HTU21D;51290;45.060;38.948;2023-11-22T11:38:17;4.22;84.43
64833;HTU21D;51290;45.060;38.948;2023-11-22T11:40:52;4.28;84.41
64833;HTU21D;51290;45.060;38.948;2023-11-22T11:43:39;4.27;84.21
64833;HTU21D;51290;45.060;38.948;2023-11-22T11:46:09;4.22;84.19
64833;HTU21D;51290;45.060;38.948;2023-11-22T11:48:35;4.19;84.18
64833;HTU21D;51290;45.060;38.948;2023-11-22T11:51:01;4.15;84.20
64833;HTU21D;51290;45.060;38.948;2023-11-22T11:53:27;4.10;84.22
64833;HTU21D;51290;45.060;38.948;2023-11-22T11:55:57;4.07;84.40
64833;HTU21D;51290;45.060;38.948;2023-11-22T11:58:23;4.06;84.45
64833;HTU21D;51290;45.060;38.948;2023-11-22T12:00:54;4.07;84.47
64833;HTU21D;51290;45.060;38.948;2023-11-22T12:03:21;4.04;84.46
64833;HTU21D;51290;45.060;38.948;2023-11-22T12:05:48;4.03;84.58
64833;HTU21D;51290;45.060;38.948;2023-11-22T12:08:17;4.06;84.76
64833;HTU21D;51290;45.060;38.948;2023-11-22T12:10:45;4.09;84.80
64833;HTU21D;51290;45.060;38.948;2023-11-22T12:13:19;4.13;84.79
64833;HTU21D;51290;45.060;38.948;2023-11-22T12:15:50;4.18;84.78
64833;HTU21D;51290;45.060;38.948;2023-11-22T12:18:17;4.23;84.78
64833;HTU21D;51290;45.060;38.948;2023-11-22T12:20:54;4.28;84.77
64833;HTU21D;51290;45.060;38.948;2023-11-22T12:23:21;4.30;84.66
64833;HTU21D;51290;45.060;38.948;2023-11-22T12:25:47;4.29;84.59
64833;HTU21D;51290;45.060;38.948;2023-11-22T12:28:16;4.28;84.68
64833;HTU21D;51290;45.060;38.948;2023-11-22T12:30:44;4.32;84.80
64833;HTU21D;51290;45.060;38.948;2023-11-22T12:33:11;4.35;84.86
64833;HTU21D;51290;45.060;38.948;2023-11-22T12:35:42;4.39;84.83
64833;HTU21D;51290;45.060;38.948;2023-11-22T12:38:09;4.44;84.78
64833;HTU21D;51290;45.060;38.948;2023-11-22T12:40:36;4.48;84.74
64833;HTU21D;51290;45.060;38.948;2023-11-22T12:43:03;4.49;84.68
64833;HTU21D;51290;45.060;38.948;2023-11-22T12:45:34;4.51;84.61
64833;HTU21D;51290;45.060;38.948;2023-11-22T12:48:36;4.53;84.60
64833;HTU21D;51290;45.060;38.948;2023-11-22T12:51:13;4.56;84.60
64833;HTU21D;51290;45.060;38.948;2023-11-22T12:53:40;4.57;84.58
64833;HTU21D;51290;45.060;38.948;2023-11-22T12:56:06;4.59;84.55
64833;HTU21D;51290;45.060;38.948;2023-11-22T12:58:33;4.57;84.50
64833;HTU21D;51290;45.060;38.948;2023-11-22T13:00:59;4.56;84.45
64833;HTU21D;51290;45.060;38.948;2023-11-22T13:03:27;4.53;84.48
64833;HTU21D;51290;45.060;38.948;2023-11-22T13:05:54;4.51;84.58
64833;HTU21D;51290;45.060;38.948;2023-11-22T13:08:21;4.50;84.67
64833;HTU21D;51290;45.060;38.948;2023-11-22T13:10:54;4.49;84.71
64833;HTU21D;51290;45.060;38.948;2023-11-22T13:13:24;4.47;84.74
64833;HTU21D;51290;45.060;38.948;2023-11-22T13:15:53;4.45;84.78
64833;HTU21D;51290;45.060;38.948;2023-11-22T13:18:20;4.44;84.97
64833;HTU21D;51290;45.060;38.948;2023-11-22T13:20:47;4.44;85.10
64833;HTU21D;51290;45.060;38.948;2023-11-22T13:23:13;4.47;85.20
64833;HTU21D;51290;45.060;38.948;2023-11-22T13:25:39;4.48;85.19
64833;HTU21D;51290;45.060;38.948;2023-11-22T13:28:07;4.48;85.14
64833;HTU21D;51290;45.060;38.948;2023-11-22T13:30:34;4.46;85.12
64833;HTU21D;51290;45.060;38.948;2023-11-22T13:33:00;4.45;85.23
64833;HTU21D;51290;45.060;38.948;2023-11-22T13:35:28;4.45;85.33
64833;HTU21D;51290;45.060;38.948;2023-11-22T13:38:00;4.45;85.42
64833;HTU21D;51290;45.060;38.948;2023-11-22T13:40:28;4.48;85.48
64833;HTU21D;51290;45.060;38.948;2023-11-22T13:42:57;4.48;85.49
64833;HTU21D;51290;45.060;38.948;2023-11-22T13:45:24;4.48;85.51
64833;HTU21D;51290;45.060;38.948;2023-11-22T13:47:52;4.47;85.60
64833;HTU21D;51290;45.060;38.948;2023-11-22T13:50:21;4.47;85.65
64833;HTU21D;51290;45.060;38.948;2023-11-22T13:52:55;4.48;85.76
64833;HTU21D;51290;45.060;38.948;2023-11-22T13:55:22;4.52;85.87
64833;HTU21D;51290;45.060;38.948;2023-11-22T13:57:56;4.54;85.85
64833;HTU21D;51290;45.060;38.948;2023-11-22T14:00:24;4.58;85.91
64833;HTU21D;51290;45.060;38.948;2023-11-22T14:02:54;4.61;85.88
64833;HTU21D;51290;45.060;38.948;2023-11-22T14:05:24;4.63;85.80
64833;HTU21D;51290;45.060;38.948;2023-11-22T14:07:51;4.63;85.72
64833;HTU21D;51290;45.060;38.948;2023-11-22T14:10:18;4.66;85.81
64833;HTU21D;51290;45.060;38.948;2023-11-22T14:12:45;4.66;85.88
64833;HTU21D;51290;45.060;38.948;2023-11-22T14:15:12;4.69;86.00
64833;HTU21D;51290;45.060;38.948;2023-11-22T14:17:38;4.73;85.99
64833;HTU21D;51290;45.060;38.948;2023-11-22T14:20:11;4.74;85.94
64833;HTU21D;51290;45.060;38.948;2023-11-22T14:22:39;4.75;85.93
64833;HTU21D;51290;45.060;38.948;2023-11-22T14:25:06;4.76;85.97
64833;HTU21D;51290;45.060;38.948;2023-11-22T14:27:43;4.77;86.02
64833;HTU21D;51290;45.060;38.948;2023-11-22T14:30:11;4.76;86.07
64833;HTU21D;51290;45.060;38.948;2023-11-22T14:32:40;4.76;86.09
64833;HTU21D;51290;45.060;38.948;2023-11-22T14:35:06;4.77;86.20
64833;HTU21D;51290;45.060;38.948;2023-11-22T14:37:36;4.78;86.22
64833;HTU21D;51290;45.060;38.948;2023-11-22T14:40:06;4.79;86.26
64833;HTU21D;51290;45.060;38.948;2023-11-22T14:42:40;4.82;86.29
64833;HTU21D;51290;45.060;38.948;2023-11-22T14:45:07;4.87;86.30
64833;HTU21D;51290;45.060;38.948;2023-11-22T14:47:33;4.89;86.33
64833;HTU21D;51290;45.060;38.948;2023-11-22T14:50:03;4.92;86.35
64833;HTU21D;51290;45.060;38.948;2023-11-22T14:52:32;4.94;86.32
64833;HTU21D;51290;45.060;38.948;2023-11-22T14:54:58;4.98;86.35
64833;HTU21D;51290;45.060;38.948;2023-11-22T14:57:26;5.02;86.35
64833;HTU21D;51290;45.060;38.948;2023-11-22T14:59:53;5.06;86.33
64833;HTU21D;51290;45.060;38.948;2023-11-22T15:02:19;5.09;86.36
64833;HTU21D;51290;45.060;38.948;2023-11-22T15:04:45;5.16;86.35
64833;HTU21D;51290;45.060;38.948;2023-11-22T15:07:12;5.18;86.39
64833;HTU21D;51290;45.060;38.948;2023-11-22T15:09:41;5.20;86.38
64833;HTU21D;51290;45.060;38.948;2023-11-22T15:12:07;5.24;86.39
64833;HTU21D;51290;45.060;38.948;2023-11-22T15:14:35;5.28;86.38
64833;HTU21D;51290;45.060;38.948;2023-11-22T15:17:01;5.33;86.34
64833;HTU21D;51290;45.060;38.948;2023-11-22T15:19:29;5.38;86.32
64833;HTU21D;51290;45.060;38.948;2023-11-22T15:21:57;5.40;86.32
64833;HTU21D;51290;45.060;38.948;2023-11-22T15:24:24;5.42;86.38